Time;durP1;ratioP1;P1;durP2;ratioP2;P2;SDS_P1;SDS_P2;PMS_P1;PMS_P2;Temp;Humidity;BMP_temperature;BMP_pressure;BME280_temperature;BME280_humidity;BME280_pressure;Samples;Min_cycle;Max_cycle;Signal;HPM_P1;HPM_P2
2021/07/27 00:01:22;;;;;;;1.42;1.33;;;;;;;;;;4972672;28;20238;-88
2021/07/27 00:03:50;;;;;;;1.70;1.60;;;;;;;;;;4973409;28;20228;-88
2021/07/27 00:06:17;;;;;;;1.70;1.60;;;;;;;;;;4973116;28;20207;-86
2021/07/27 00:08:47;;;;;;;1.63;1.52;;;;;;;;;;4973880;28;20196;-86
2021/07/27 00:11:17;;;;;;;1.38;1.27;;;;;;;;;;4973699;28;20255;-87
2021/07/27 00:13:44;;;;;;;1.80;1.70;;;;;;;;;;4973772;28;20192;-87
2021/07/27 00:16:13;;;;;;;1.52;1.30;;;;;;;;;;4973694;28;20200;-87
2021/07/27 00:18:41;;;;;;;2.80;1.42;;;;;;;;;;4973558;28;20204;-87
2021/07/27 00:21:09;;;;;;;1.35;1.25;;;;;;;;;;4973279;28;20226;-86
2021/07/27 00:23:38;;;;;;;1.20;1.10;;;;;;;;;;4973670;28;20576;-87
2021/07/27 00:26:13;;;;;;;1.23;1.23;;;;;;;;;;4973580;28;20188;-87
2021/07/27 00:28:44;;;;;;;1.20;1.20;;;;;;;;;;4973218;28;20577;-87
2021/07/27 00:31:19;;;;;;;1.13;1.05;;;;;;;;;;4973583;28;20263;-87
2021/07/27 00:33:48;;;;;;;1.33;1.23;;;;;;;;;;4973157;28;20200;-87
2021/07/27 00:36:19;;;;;;;0.80;0.80;;;;;;;;;;4973520;28;20189;-87
2021/07/27 00:38:46;;;;;;;1.20;1.10;;;;;;;;;;4973699;28;20185;-87
2021/07/27 00:41:15;;;;;;;1.00;1.00;;;;;;;;;;4972937;28;20228;-87
2021/07/27 00:43:44;;;;;;;1.10;1.00;;;;;;;;;;4973384;28;20205;-86
2021/07/27 00:46:12;;;;;;;1.50;1.40;;;;;;;;;;4973078;28;20188;-87
2021/07/27 00:48:39;;;;;;;1.60;1.50;;;;;;;;;;4975642;28;20204;-87
2021/07/27 00:51:08;;;;;;;1.20;1.20;;;;;;;;;;4976685;28;20229;-87
2021/07/27 00:53:38;;;;;;;1.73;1.63;;;;;;;;;;4976688;28;20195;-86
2021/07/27 00:56:08;;;;;;;1.20;1.10;;;;;;;;;;4976463;28;20200;-86
2021/07/27 00:58:36;;;;;;;0.98;0.98;;;;;;;;;;4976603;28;20181;-86
2021/07/27 01:01:05;;;;;;;1.30;1.20;;;;;;;;;;4976186;28;20312;-87
2021/07/27 01:03:33;;;;;;;1.15;1.05;;;;;;;;;;4976850;28;20231;-86
2021/07/27 01:06:01;;;;;;;0.90;0.90;;;;;;;;;;4976592;28;20194;-86
2021/07/27 01:08:28;;;;;;;0.88;0.88;;;;;;;;;;4976465;28;20207;-86
2021/07/27 01:10:57;;;;;;;1.15;1.00;;;;;;;;;;4976590;28;20243;-87
2021/07/27 01:13:24;;;;;;;1.10;1.08;;;;;;;;;;4976468;28;20180;-86
2021/07/27 01:15:53;;;;;;;1.40;1.30;;;;;;;;;;4976824;28;20224;-87
2021/07/27 01:18:28;;;;;;;1.42;1.30;;;;;;;;;;4976412;28;20726;-87
2021/07/27 01:37:52;;;;;;;1.10;1.10;;;;;;;;;;4975557;28;20207;-87
2021/07/27 01:40:22;;;;;;;1.15;1.05;;;;;;;;;;4975974;28;20251;-86
2021/07/27 01:42:50;;;;;;;1.70;1.60;;;;;;;;;;4975742;28;20742;-86
2021/07/27 01:45:19;;;;;;;1.63;1.52;;;;;;;;;;4976065;28;20209;-87
2021/07/27 01:47:46;;;;;;;1.42;1.33;;;;;;;;;;4976006;28;20199;-87
2021/07/27 01:50:17;;;;;;;2.88;2.33;;;;;;;;;;4975909;28;20225;-86
2021/07/27 01:52:49;;;;;;;3.22;1.50;;;;;;;;;;4975669;28;20207;-87
2021/07/27 01:55:19;;;;;;;1.52;1.48;;;;;;;;;;4975577;28;20854;-87
2021/07/27 01:57:49;;;;;;;1.88;1.20;;;;;;;;;;4964789;28;20197;-87
2021/07/27 02:00:18;;;;;;;1.60;1.50;;;;;;;;;;4956042;28;20735;-87
2021/07/27 02:02:46;;;;;;;1.35;1.33;;;;;;;;;;4956073;28;20237;-88
2021/07/27 02:05:13;;;;;;;1.58;1.48;;;;;;;;;;4956193;29;20215;-86
2021/07/27 02:07:50;;;;;;;2.20;1.50;;;;;;;;;;4956361;29;20200;-86
2021/07/27 02:10:18;;;;;;;1.50;1.40;;;;;;;;;;4955562;28;20229;-86
2021/07/27 02:12:52;;;;;;;2.85;1.58;;;;;;;;;;4956356;29;20203;-86
2021/07/27 02:15:23;;;;;;;1.25;1.15;;;;;;;;;;4956200;29;20217;-86
2021/07/27 02:17:52;;;;;;;1.30;1.20;;;;;;;;;;4966375;28;20664;-86
2021/07/27 02:20:20;;;;;;;1.40;1.30;;;;;;;;;;4975331;28;20220;-87
2021/07/27 02:22:48;;;;;;;1.50;1.40;;;;;;;;;;4975004;28;20195;-87
2021/07/27 02:25:16;;;;;;;1.58;1.35;;;;;;;;;;4974791;28;20224;-87
2021/07/27 02:27:50;;;;;;;1.60;1.50;;;;;;;;;;4974862;28;20588;-87
2021/07/27 02:30:18;;;;;;;1.65;1.55;;;;;;;;;;4974495;28;20224;-87
2021/07/27 02:32:46;;;;;;;2.22;2.00;;;;;;;;;;4974265;28;20463;-87
2021/07/27 02:35:13;;;;;;;1.65;1.55;;;;;;;;;;4974745;28;20188;-86
2021/07/27 02:37:41;;;;;;;1.80;1.70;;;;;;;;;;4975191;28;20188;-87
2021/07/27 02:40:11;;;;;;;2.20;2.00;;;;;;;;;;4975151;28;20224;-87
2021/07/27 02:42:40;;;;;;;1.92;1.83;;;;;;;;;;4974566;28;20982;-87
2021/07/27 02:45:11;;;;;;;2.10;2.00;;;;;;;;;;4974814;28;20209;-86
2021/07/27 02:47:41;;;;;;;1.90;1.80;;;;;;;;;;4974744;28;20200;-87
2021/07/27 02:50:10;;;;;;;2.05;1.70;;;;;;;;;;4974858;28;20231;-86
2021/07/27 02:52:37;;;;;;;1.60;1.50;;;;;;;;;;4974609;28;20632;-87
2021/07/27 02:55:08;;;;;;;1.70;1.60;;;;;;;;;;4974748;28;20200;-87
2021/07/27 02:57:36;;;;;;;1.70;1.60;;;;;;;;;;4974248;28;20604;-87
2021/07/27 03:00:05;;;;;;;2.22;2.03;;;;;;;;;;4974613;28;20224;-87
2021/07/27 03:02:36;;;;;;;3.42;1.90;;;;;;;;;;4974224;28;20228;-87
2021/07/27 03:05:04;;;;;;;1.73;1.58;;;;;;;;;;4974609;28;20208;-87
2021/07/27 03:07:35;;;;;;;2.65;2.08;;;;;;;;;;4974360;28;20200;-87
2021/07/27 03:10:18;;;;;;;1.73;1.63;;;;;;;;;;4973911;28;20638;-86
2021/07/27 03:12:45;;;;;;;2.65;2.10;;;;;;;;;;4974515;28;20188;-86
2021/07/27 03:15:15;;;;;;;1.75;1.65;;;;;;;;;;4974144;28;20667;-86
2021/07/27 03:17:44;;;;;;;2.17;2.00;;;;;;;;;;4974310;28;20193;-87
2021/07/27 03:20:15;;;;;;;1.70;1.60;;;;;;;;;;4974207;28;20239;-86
2021/07/27 03:22:43;;;;;;;1.58;1.48;;;;;;;;;;4974252;28;20632;-86
2021/07/27 03:25:15;;;;;;;2.10;1.90;;;;;;;;;;4973904;28;20187;-88
2021/07/27 03:27:43;;;;;;;2.00;1.80;;;;;;;;;;4974052;28;20200;-87
2021/07/27 03:30:11;;;;;;;1.77;1.67;;;;;;;;;;4974200;28;20231;-87
2021/07/27 03:32:39;;;;;;;1.67;1.58;;;;;;;;;;4974250;28;20214;-87
2021/07/27 03:35:09;;;;;;;1.90;1.77;;;;;;;;;;4974187;28;20193;-86
2021/07/27 03:37:40;;;;;;;1.95;1.85;;;;;;;;;;4973757;28;20789;-87
2021/07/27 03:40:09;;;;;;;2.97;2.03;;;;;;;;;;4976095;28;20216;-87
2021/07/27 03:42:36;;;;;;;1.90;1.80;;;;;;;;;;4973640;28;20208;-87
2021/07/27 03:45:07;;;;;;;2.33;2.13;;;;;;;;;;4974315;28;20192;-87
2021/07/27 03:47:36;;;;;;;2.38;1.90;;;;;;;;;;4974282;28;20181;-86
2021/07/27 03:50:05;;;;;;;2.30;2.00;;;;;;;;;;4974143;28;20228;-87
2021/07/27 03:52:41;;;;;;;1.90;1.80;;;;;;;;;;4974611;28;20615;-87
2021/07/27 03:55:10;;;;;;;1.98;1.77;;;;;;;;;;4972744;28;20597;-87
2021/07/27 03:57:44;;;;;;;2.17;1.65;;;;;;;;;;4973177;28;20216;-86
2021/07/27 04:00:12;;;;;;;1.77;1.50;;;;;;;;;;4973733;28;20228;-86
2021/07/27 04:02:46;;;;;;;1.60;1.50;;;;;;;;;;4973365;28;20232;-86
2021/07/27 04:05:13;;;;;;;2.33;1.52;;;;;;;;;;4961814;28;20197;-86
2021/07/27 04:07:43;;;;;;;1.50;1.40;;;;;;;;;;4954425;29;20580;-87
2021/07/27 04:10:12;;;;;;;1.52;1.42;;;;;;;;;;4954274;28;20233;-87
2021/07/27 04:12:41;;;;;;;2.17;1.63;;;;;;;;;;4954361;29;20647;-86
2021/07/27 04:15:11;;;;;;;1.60;1.50;;;;;;;;;;4954441;29;20213;-87
2021/07/27 04:17:38;;;;;;;1.83;1.73;;;;;;;;;;4960122;28;20188;-87
2021/07/27 04:20:09;;;;;;;1.60;1.50;;;;;;;;;;4973516;28;20226;-86
2021/07/27 04:22:37;;;;;;;1.05;1.05;;;;;;;;;;4976691;28;20189;-86
2021/07/27 04:25:08;;;;;;;1.30;1.20;;;;;;;;;;4977634;28;20197;-86
2021/07/27 04:27:36;;;;;;;1.30;1.20;;;;;;;;;;4977096;28;20227;-87
2021/07/27 04:30:05;;;;;;;1.63;1.52;;;;;;;;;;4976911;28;20231;-87
2021/07/27 04:32:33;;;;;;;1.80;1.70;;;;;;;;;;4977595;28;20567;-87
2021/07/27 04:35:01;;;;;;;2.15;1.95;;;;;;;;;;4977434;28;20220;-86
2021/07/27 04:37:29;;;;;;;1.75;1.65;;;;;;;;;;4977208;28;20204;-87
2021/07/27 04:39:56;;;;;;;2.10;2.00;;;;;;;;;;4977236;28;20185;-87
2021/07/27 04:42:35;;;;;;;1.90;1.80;;;;;;;;;;4979419;28;20188;-87
2021/07/27 04:45:21;;;;;;;2.78;2.55;;;;;;;;;;4979054;28;20578;-87
2021/07/27 04:48:30;;;;;;;2.60;2.40;;;;;;;;;;4976961;28;20816;-87
2021/07/27 04:51:54;;;;;;;1.77;1.67;;;;;;;;;;4977256;28;20599;-88
2021/07/27 04:55:05;;;;;;;2.45;1.90;;;;;;;;;;4976985;28;20185;-86
2021/07/27 04:57:48;;;;;;;2.70;2.17;;;;;;;;;;4977113;28;20188;-86
2021/07/27 05:00:28;;;;;;;2.00;1.80;;;;;;;;;;4977038;28;20265;-87
2021/07/27 05:03:02;;;;;;;2.60;2.40;;;;;;;;;;4976831;28;20231;-87
2021/07/27 05:05:57;;;;;;;1.55;1.45;;;;;;;;;;4977315;28;20200;-86
2021/07/27 05:09:24;;;;;;;1.92;1.83;;;;;;;;;;4976831;28;20208;-87
2021/07/27 05:12:24;;;;;;;2.10;1.63;;;;;;;;;;4976522;28;20714;-86
2021/07/27 05:15:15;;;;;;;2.25;2.15;;;;;;;;;;4957555;29;20206;-86
2021/07/27 05:17:42;;;;;;;1.60;1.50;;;;;;;;;;4961796;28;20195;-85
2021/07/27 05:20:37;;;;;;;1.50;1.38;;;;;;;;;;4976450;28;20711;-86
2021/07/27 05:23:05;;;;;;;1.20;1.10;;;;;;;;;;4976607;28;20201;-85
2021/07/27 05:25:34;;;;;;;1.92;1.83;;;;;;;;;;4976746;28;20200;-84
2021/07/27 05:28:12;;;;;;;1.58;1.48;;;;;;;;;;4976432;28;20228;-86
2021/07/27 05:30:43;;;;;;;2.42;1.95;;;;;;;;;;4976529;28;20827;-85
2021/07/27 05:33:31;;;;;;;2.17;2.05;;;;;;;;;;4975910;28;20239;-86
2021/07/27 05:36:22;;;;;;;1.55;1.45;;;;;;;;;;4975703;28;20216;-85
2021/07/27 05:38:51;;;;;;;1.65;1.55;;;;;;;;;;4976177;28;20207;-85
2021/07/27 05:41:19;;;;;;;2.10;1.90;;;;;;;;;;4988371;23;20227;-86
2021/07/27 05:43:52;;;;;;;1.77;1.67;;;;;;;;;;4992252;28;20196;-85
2021/07/27 05:46:21;;;;;;;1.60;1.48;;;;;;;;;;4993458;28;20263;-86
2021/07/27 05:48:52;;;;;;;2.33;2.08;;;;;;;;;;4993448;28;20191;-86
2021/07/27 05:51:22;;;;;;;2.53;1.90;;;;;;;;;;5005821;28;20270;-85
2021/07/27 05:53:51;;;;;;;2.25;2.05;;;;;;;;;;4992906;28;20277;-86
2021/07/27 05:56:20;;;;;;;2.25;2.15;;;;;;;;;;4992724;28;20211;-86
2021/07/27 05:58:47;;;;;;;1.55;1.45;;;;;;;;;;4993396;28;20188;-85
2021/07/27 06:01:23;;;;;;;2.10;1.92;;;;;;;;;;4993318;28;20227;-86
2021/07/27 06:03:51;;;;;;;2.00;1.90;;;;;;;;;;4954042;29;20185;-85
2021/07/27 06:06:19;;;;;;;1.70;1.60;;;;;;;;;;4954144;28;20205;-85
2021/07/27 06:08:46;;;;;;;1.90;1.80;;;;;;;;;;4952932;28;20240;-85
2021/07/27 06:11:15;;;;;;;2.17;2.08;;;;;;;;;;4953871;28;20247;-86
2021/07/27 06:13:43;;;;;;;1.52;1.42;;;;;;;;;;4992270;28;20207;-85
2021/07/27 06:16:12;;;;;;;2.10;1.95;;;;;;;;;;4993386;28;20196;-85
2021/07/27 06:18:42;;;;;;;1.98;1.88;;;;;;;;;;4991435;28;20204;-85
2021/07/27 06:21:10;;;;;;;2.00;1.90;;;;;;;;;;4993720;28;20233;-87
2021/07/27 06:23:38;;;;;;;2.03;1.92;;;;;;;;;;4994364;28;20631;-86
2021/07/27 06:26:06;;;;;;;2.40;2.20;;;;;;;;;;4994563;28;20215;-85
2021/07/27 06:28:34;;;;;;;2.78;2.58;;;;;;;;;;4994025;28;20208;-86
2021/07/27 06:31:10;;;;;;;2.05;1.90;;;;;;;;;;4993922;28;20228;-85
2021/07/27 06:33:41;;;;;;;2.10;2.00;;;;;;;;;;4994683;28;20262;-85
2021/07/27 06:36:08;;;;;;;1.92;1.83;;;;;;;;;;4994683;28;20190;-85
2021/07/27 06:38:37;;;;;;;2.35;2.15;;;;;;;;;;4993218;28;20207;-84
2021/07/27 06:41:07;;;;;;;2.00;1.90;;;;;;;;;;4977534;28;20245;-85
2021/07/27 06:43:35;;;;;;;1.67;1.58;;;;;;;;;;4994195;28;20195;-85
2021/07/27 06:46:03;;;;;;;2.22;2.13;;;;;;;;;;4992885;28;20578;-85
2021/07/27 06:48:31;;;;;;;1.90;1.80;;;;;;;;;;4993882;28;20224;-86
2021/07/27 06:51:07;;;;;;;2.38;2.17;;;;;;;;;;4988125;28;20226;-86
2021/07/27 06:53:35;;;;;;;2.08;1.98;;;;;;;;;;4994328;28;20267;-86
2021/07/27 06:56:02;;;;;;;1.50;1.40;;;;;;;;;;4994142;28;20212;-85
2021/07/27 06:58:32;;;;;;;2.00;1.90;;;;;;;;;;4994388;28;20210;-85
2021/07/27 07:01:02;;;;;;;1.50;1.40;;;;;;;;;;4955462;28;20224;-84
2021/07/27 07:03:29;;;;;;;2.05;1.95;;;;;;;;;;4954967;29;20178;-85
2021/07/27 07:05:59;;;;;;;1.95;1.85;;;;;;;;;;4955464;29;20274;-85
2021/07/27 07:08:27;;;;;;;1.90;1.80;;;;;;;;;;4955568;29;20209;-84
2021/07/27 07:10:58;;;;;;;1.80;1.70;;;;;;;;;;4978808;28;20228;-85
2021/07/27 07:13:27;;;;;;;1.90;1.77;;;;;;;;;;4974775;28;20200;-84
2021/07/27 07:15:55;;;;;;;2.10;2.00;;;;;;;;;;4974422;28;20211;-85
2021/07/27 07:18:24;;;;;;;2.47;2.30;;;;;;;;;;4973736;28;20864;-85
2021/07/27 07:20:53;;;;;;;1.60;1.50;;;;;;;;;;4974337;28;20231;-86
2021/07/27 07:23:22;;;;;;;2.08;1.80;;;;;;;;;;4977941;28;20196;-84
2021/07/27 07:25:50;;;;;;;1.50;1.40;;;;;;;;;;4993720;28;20215;-84
2021/07/27 07:28:19;;;;;;;1.95;1.85;;;;;;;;;;4993850;28;20208;-84
2021/07/27 07:30:47;;;;;;;1.40;1.30;;;;;;;;;;4993614;28;20200;-87
2021/07/27 07:33:16;;;;;;;1.95;1.85;;;;;;;;;;4993452;28;20211;-85
2021/07/27 07:35:45;;;;;;;1.90;1.80;;;;;;;;;;4993993;28;20194;-85
2021/07/27 07:38:12;;;;;;;1.70;1.60;;;;;;;;;;4994563;28;20188;-85
2021/07/27 07:40:41;;;;;;;2.08;1.98;;;;;;;;;;4982045;28;20211;-85
2021/07/27 07:43:09;;;;;;;2.10;2.00;;;;;;;;;;4955389;29;20181;-84
2021/07/27 07:45:38;;;;;;;2.45;1.98;;;;;;;;;;4955870;29;20193;-85
2021/07/27 07:48:06;;;;;;;2.00;1.90;;;;;;;;;;4955631;29;20241;-86
2021/07/27 07:50:34;;;;;;;1.95;1.77;;;;;;;;;;4954488;29;20362;-85
2021/07/27 07:53:04;;;;;;;1.90;1.80;;;;;;;;;;4954779;29;20736;-84
2021/07/27 07:55:32;;;;;;;2.15;2.00;;;;;;;;;;4954918;29;20605;-85
2021/07/27 07:58:01;;;;;;;1.45;1.45;;;;;;;;;;4954380;29;20189;-85
2021/07/27 08:00:29;;;;;;;2.35;2.17;;;;;;;;;;4953912;29;20205;-85
2021/07/27 08:02:57;;;;;;;1.70;1.60;;;;;;;;;;4955095;28;20224;-85
2021/07/27 08:05:26;;;;;;;3.13;2.03;;;;;;;;;;4954561;29;20260;-86
2021/07/27 08:07:54;;;;;;;2.03;1.92;;;;;;;;;;4954824;29;20189;-85
2021/07/27 08:10:22;;;;;;;7.07;2.40;;;;;;;;;;4954473;28;20190;-85
2021/07/27 08:12:50;;;;;;;1.95;1.85;;;;;;;;;;4971273;28;20212;-85
2021/07/27 08:15:25;;;;;;;1.70;1.60;;;;;;;;;;4968709;28;20201;-84
2021/07/27 08:17:53;;;;;;;1.85;1.75;;;;;;;;;;4974440;28;20250;-86
2021/07/27 08:20:22;;;;;;;1.63;1.52;;;;;;;;;;4959152;28;20205;-85
2021/07/27 08:22:50;;;;;;;1.80;1.70;;;;;;;;;;4955398;28;20224;-85
2021/07/27 08:25:18;;;;;;;1.83;1.73;;;;;;;;;;4955868;29;20619;-84
2021/07/27 08:27:47;;;;;;;1.75;1.65;;;;;;;;;;4955489;29;20181;-84
2021/07/27 08:30:18;;;;;;;1.40;1.30;;;;;;;;;;4954639;29;20969;-84
2021/07/27 08:32:48;;;;;;;1.40;1.40;;;;;;;;;;4955612;28;20225;-86
2021/07/27 08:35:17;;;;;;;1.48;1.38;;;;;;;;;;4956136;29;20192;-85
2021/07/27 08:37:46;;;;;;;1.25;1.25;;;;;;;;;;4955450;29;20692;-85
2021/07/27 08:40:16;;;;;;;1.67;1.58;;;;;;;;;;4955485;29;20248;-84
2021/07/27 08:42:45;;;;;;;1.70;1.60;;;;;;;;;;4987009;28;20244;-86
2021/07/27 08:45:13;;;;;;;1.35;1.35;;;;;;;;;;4994093;28;20291;-85
2021/07/27 08:47:43;;;;;;;1.85;1.75;;;;;;;;;;4993173;28;20195;-85
2021/07/27 08:50:14;;;;;;;1.40;1.30;;;;;;;;;;4992862;28;20203;-85
2021/07/27 08:52:42;;;;;;;1.55;1.45;;;;;;;;;;4993500;28;20216;-86
2021/07/27 08:55:11;;;;;;;1.45;1.42;;;;;;;;;;4975998;28;20207;-86
2021/07/27 08:57:47;;;;;;;2.05;1.95;;;;;;;;;;4973949;28;20195;-84
2021/07/27 09:00:15;;;;;;;1.83;1.73;;;;;;;;;;4973638;28;20225;-85
2021/07/27 09:02:43;;;;;;;1.73;1.60;;;;;;;;;;4974001;28;20731;-85
2021/07/27 09:05:14;;;;;;;1.58;1.48;;;;;;;;;;4973595;28;20654;-85
2021/07/27 09:07:42;;;;;;;1.73;1.63;;;;;;;;;;4973513;28;20287;-84
2021/07/27 09:10:17;;;;;;;1.65;1.55;;;;;;;;;;4990419;28;20227;-84
2021/07/27 09:12:58;;;;;;;1.55;1.45;;;;;;;;;;4996319;28;20779;-84
2021/07/27 09:15:28;;;;;;;3.00;2.30;;;;;;;;;;4998225;28;20196;-84
2021/07/27 09:17:58;;;;;;;1.85;1.75;;;;;;;;;;4996874;28;20194;-85
2021/07/27 09:20:35;;;;;;;1.70;1.60;;;;;;;;;;4978662;28;20204;-86
2021/07/27 09:23:05;;;;;;;1.92;1.83;;;;;;;;;;4977269;28;20239;-87
2021/07/27 09:25:47;;;;;;;2.05;1.95;;;;;;;;;;4977117;28;20196;-86
2021/07/27 09:28:15;;;;;;;2.33;2.13;;;;;;;;;;4977539;28;20195;-84
2021/07/27 09:30:45;;;;;;;2.00;1.90;;;;;;;;;;4978206;28;20212;-85
2021/07/27 09:33:15;;;;;;;1.77;1.63;;;;;;;;;;4977354;28;20193;-84
2021/07/27 09:35:45;;;;;;;2.13;2.03;;;;;;;;;;4976652;28;20184;-84
2021/07/27 09:38:16;;;;;;;2.22;2.10;;;;;;;;;;4976206;28;20180;-86
2021/07/27 09:40:52;;;;;;;1.75;1.65;;;;;;;;;;4988542;28;20196;-85
2021/07/27 09:43:23;;;;;;;1.73;1.63;;;;;;;;;;4961789;28;20301;-85
2021/07/27 09:45:52;;;;;;;2.28;2.17;;;;;;;;;;4959540;29;20268;-85
2021/07/27 09:48:22;;;;;;;2.10;2.00;;;;;;;;;;4959372;29;20556;-87
2021/07/27 09:50:53;;;;;;;1.83;1.73;;;;;;;;;;4960188;28;20217;-85
2021/07/27 09:53:21;;;;;;;2.30;1.95;;;;;;;;;;4974244;28;20276;-86
2021/07/27 09:55:51;;;;;;;2.28;1.63;;;;;;;;;;4962022;28;20648;-84
2021/07/27 09:58:20;;;;;;;1.80;1.70;;;;;;;;;;4958527;29;20258;-86
2021/07/27 10:00:53;;;;;;;1.70;1.60;;;;;;;;;;4958838;29;20229;-85
2021/07/27 10:03:25;;;;;;;1.67;1.58;;;;;;;;;;4952198;29;20294;-86
2021/07/27 10:06:02;;;;;;;1.50;1.40;;;;;;;;;;4938625;29;20182;-85
2021/07/27 10:08:33;;;;;;;1.90;1.80;;;;;;;;;;4939272;29;20181;-85
2021/07/27 10:11:18;;;;;;;1.88;1.77;;;;;;;;;;4958350;28;20224;-85
2021/07/27 10:13:48;;;;;;;2.15;1.95;;;;;;;;;;4976391;28;20192;-85
2021/07/27 10:16:22;;;;;;;1.60;1.50;;;;;;;;;;4961327;28;20198;-85
2021/07/27 10:18:50;;;;;;;1.63;1.52;;;;;;;;;;4955948;28;20197;-85
2021/07/27 10:21:25;;;;;;;2.00;1.90;;;;;;;;;;4955831;28;20227;-85
2021/07/27 10:23:54;;;;;;;1.90;1.80;;;;;;;;;;4956860;29;20200;-84
2021/07/27 10:26:29;;;;;;;1.88;1.77;;;;;;;;;;4956566;29;20200;-84
2021/07/27 10:29:09;;;;;;;1.65;1.55;;;;;;;;;;4955841;29;20193;-85
2021/07/27 10:31:40;;;;;;;1.90;1.80;;;;;;;;;;4958811;28;20224;-85
2021/07/27 10:34:10;;;;;;;1.83;1.73;;;;;;;;;;4937013;29;20182;-84
2021/07/27 10:36:41;;;;;;;2.00;1.90;;;;;;;;;;4936617;29;20186;-84
2021/07/27 10:39:12;;;;;;;1.50;1.40;;;;;;;;;;4943581;28;20280;-84
2021/07/27 10:41:42;;;;;;;3.78;2.20;;;;;;;;;;4975248;28;20271;-84
2021/07/27 10:44:12;;;;;;;2.45;1.70;;;;;;;;;;4975155;28;20212;-85
2021/07/27 10:46:45;;;;;;;2.03;1.92;;;;;;;;;;4974903;28;20177;-84
2021/07/27 10:49:19;;;;;;;1.77;1.67;;;;;;;;;;4969538;28;20197;-85
2021/07/27 10:51:48;;;;;;;2.13;1.55;;;;;;;;;;4954905;28;20228;-84
2021/07/27 10:54:17;;;;;;;1.95;1.70;;;;;;;;;;4954550;29;20563;-84
2021/07/27 10:56:58;;;;;;;1.95;1.77;;;;;;;;;;4954700;29;20197;-86
2021/07/27 10:59:27;;;;;;;1.85;1.75;;;;;;;;;;4955431;29;20714;-84
2021/07/27 11:01:55;;;;;;;2.20;2.10;;;;;;;;;;4957051;28;20320;-83
2021/07/27 11:04:29;;;;;;;3.35;3.05;;;;;;;;;;4974480;28;20196;-85
2021/07/27 11:07:09;;;;;;;2.30;2.20;;;;;;;;;;4974852;28;20195;-85
2021/07/27 11:09:50;;;;;;;2.33;2.03;;;;;;;;;;4965629;28;20223;-85
2021/07/27 11:12:29;;;;;;;2.35;2.10;;;;;;;;;;4960724;28;20224;-86
2021/07/27 11:15:11;;;;;;;2.30;2.20;;;;;;;;;;4974478;28;20185;-84
2021/07/27 11:17:43;;;;;;;2.00;1.90;;;;;;;;;;4974739;28;20251;-85
2021/07/27 11:20:11;;;;;;;2.42;2.22;;;;;;;;;;4961130;28;20232;-85
2021/07/27 11:22:46;;;;;;;1.90;1.80;;;;;;;;;;4955233;28;20256;-87
2021/07/27 11:25:17;;;;;;;2.75;2.55;;;;;;;;;;4955160;29;20193;-87
2021/07/27 11:27:57;;;;;;;2.80;2.55;;;;;;;;;;4955072;29;20201;-88
2021/07/27 11:30:36;;;;;;;2.05;1.95;;;;;;;;;;4954709;28;20216;-87
2021/07/27 11:33:09;;;;;;;2.55;2.22;;;;;;;;;;4965898;28;20189;-86
2021/07/27 11:35:51;;;;;;;1.90;1.80;;;;;;;;;;4974604;28;20192;-86
2021/07/27 11:38:27;;;;;;;2.47;2.30;;;;;;;;;;4974485;28;20218;-86
2021/07/27 11:41:21;;;;;;;1.85;1.75;;;;;;;;;;4975512;28;20223;-86
2021/07/27 11:43:50;;;;;;;3.67;2.40;;;;;;;;;;4976630;28;20204;-87
2021/07/27 11:46:20;;;;;;;3.15;2.95;;;;;;;;;;4978401;28;20220;-86
2021/07/27 11:48:54;;;;;;;2.78;2.55;;;;;;;;;;4987037;28;20207;-86
2021/07/27 11:51:30;;;;;;;2.13;2.03;;;;;;;;;;4973965;28;20232;-86
2021/07/27 11:54:08;;;;;;;2.50;2.30;;;;;;;;;;4973885;28;20239;-86
2021/07/27 11:56:46;;;;;;;2.20;2.10;;;;;;;;;;4974205;28;20188;-85
2021/07/27 11:59:26;;;;;;;2.50;2.30;;;;;;;;;;4973963;28;20203;-86
2021/07/27 12:01:53;;;;;;;1.83;1.73;;;;;;;;;;4988247;28;20224;-85
2021/07/27 12:04:22;;;;;;;2.53;2.38;;;;;;;;;;4993323;28;20646;-84
2021/07/27 12:06:52;;;;;;;2.35;2.15;;;;;;;;;;4993143;28;20211;-87
2021/07/27 12:09:23;;;;;;;2.60;2.40;;;;;;;;;;4993025;28;20186;-87
2021/07/27 12:11:52;;;;;;;2.50;2.35;;;;;;;;;;4992825;28;20228;-84
2021/07/27 12:14:20;;;;;;;2.47;2.28;;;;;;;;;;4993554;28;20194;-86
2021/07/27 12:16:48;;;;;;;2.40;2.20;;;;;;;;;;4993503;28;20191;-86
2021/07/27 12:19:16;;;;;;;3.17;2.97;;;;;;;;;;4986420;28;20931;-86
2021/07/27 12:21:43;;;;;;;2.88;2.67;;;;;;;;;;4973063;28;20729;-85
2021/07/27 12:24:11;;;;;;;2.58;2.40;;;;;;;;;;4973518;28;20200;-87
2021/07/27 12:26:41;;;;;;;2.65;2.45;;;;;;;;;;4973641;28;20184;-85
2021/07/27 12:29:09;;;;;;;2.70;2.50;;;;;;;;;;4968500;28;20189;-85
2021/07/27 12:31:36;;;;;;;2.88;2.67;;;;;;;;;;4954340;29;20233;-85
2021/07/27 12:34:05;;;;;;;2.65;2.45;;;;;;;;;;4954205;29;20213;-84
2021/07/27 12:36:34;;;;;;;3.63;3.33;;;;;;;;;;4955004;29;20244;-84
2021/07/27 12:39:02;;;;;;;2.42;2.33;;;;;;;;;;4957937;28;20283;-84
2021/07/27 12:41:29;;;;;;;2.50;2.40;;;;;;;;;;4977110;28;20721;-85
2021/07/27 12:43:58;;;;;;;3.05;2.85;;;;;;;;;;4996105;28;20207;-88
2021/07/27 12:46:26;;;;;;;3.00;2.80;;;;;;;;;;4996950;28;20207;-84
2021/07/27 12:48:53;;;;;;;2.78;2.58;;;;;;;;;;4993148;28;20203;-85
2021/07/27 12:51:21;;;;;;;3.75;3.42;;;;;;;;;;4977341;28;20228;-85
2021/07/27 12:53:49;;;;;;;3.28;2.97;;;;;;;;;;4977111;28;20279;-85
2021/07/27 12:56:16;;;;;;;3.67;3.38;;;;;;;;;;4976694;28;20687;-85
2021/07/27 12:58:44;;;;;;;2.78;2.58;;;;;;;;;;4976504;28;20208;-84
2021/07/27 13:01:14;;;;;;;5.40;2.80;;;;;;;;;;4977048;28;20243;-86
2021/07/27 13:03:42;;;;;;;2.58;2.38;;;;;;;;;;4976914;28;20208;-84
2021/07/27 13:06:10;;;;;;;2.50;2.35;;;;;;;;;;4976961;28;20209;-85
2021/07/27 13:08:38;;;;;;;2.65;2.45;;;;;;;;;;4977706;28;20215;-85
2021/07/27 13:11:05;;;;;;;2.38;2.28;;;;;;;;;;4996161;28;20246;-84
2021/07/27 13:13:32;;;;;;;2.42;2.25;;;;;;;;;;4995423;28;20212;-85
2021/07/27 13:16:03;;;;;;;2.40;2.20;;;;;;;;;;4996341;28;20195;-85
2021/07/27 13:18:34;;;;;;;3.17;2.95;;;;;;;;;;4995822;28;20184;-86
2021/07/27 13:21:29;;;;;;;2.60;2.40;;;;;;;;;;4995637;28;20282;-91
2021/07/27 13:24:03;;;;;;;3.10;2.90;;;;;;;;;;4995742;28;20204;-87
2021/07/27 13:26:32;;;;;;;3.33;3.13;;;;;;;;;;4995764;28;20214;-85
2021/07/27 13:29:00;;;;;;;2.40;2.30;;;;;;;;;;4991861;28;20207;-84
2021/07/27 13:31:27;;;;;;;4.60;4.30;;;;;;;;;;4975738;28;20235;-86
2021/07/27 13:33:56;;;;;;;3.00;2.80;;;;;;;;;;4956589;29;20189;-84
2021/07/27 13:36:23;;;;;;;2.85;2.65;;;;;;;;;;4970790;28;20202;-85
2021/07/27 13:38:51;;;;;;;2.58;2.38;;;;;;;;;;4994905;28;20242;-86
2021/07/27 13:41:18;;;;;;;2.50;2.30;;;;;;;;;;4994997;28;20262;-85
2021/07/27 13:43:47;;;;;;;2.88;2.67;;;;;;;;;;4994548;28;20196;-85
2021/07/27 13:46:14;;;;;;;2.33;2.10;;;;;;;;;;4994896;28;20192;-84
2021/07/27 13:48:41;;;;;;;2.10;2.00;;;;;;;;;;4994806;28;20215;-84
2021/07/27 13:51:10;;;;;;;2.45;2.35;;;;;;;;;;4995490;28;20223;-85
2021/07/27 13:53:39;;;;;;;2.83;2.63;;;;;;;;;;4995246;28;20184;-85
2021/07/27 13:56:07;;;;;;;2.70;2.30;;;;;;;;;;4995086;28;20793;-86
2021/07/27 13:58:35;;;;;;;2.90;2.70;;;;;;;;;;4995520;28;20200;-87
2021/07/27 14:01:04;;;;;;;3.42;3.13;;;;;;;;;;4995776;28;20215;-86
2021/07/27 14:03:33;;;;;;;2.60;2.40;;;;;;;;;;4995729;28;20295;-85
2021/07/27 14:06:06;;;;;;;2.75;2.55;;;;;;;;;;4995630;28;20309;-85
2021/07/27 14:08:36;;;;;;;2.58;2.38;;;;;;;;;;4994454;28;20188;-86
2021/07/27 14:11:03;;;;;;;3.17;2.97;;;;;;;;;;4975383;28;20720;-84
2021/07/27 14:13:31;;;;;;;2.80;2.60;;;;;;;;;;4975602;28;20228;-85
2021/07/27 14:16:00;;;;;;;3.28;3.08;;;;;;;;;;4975927;28;20268;-85
2021/07/27 14:18:27;;;;;;;3.08;2.70;;;;;;;;;;4976963;28;20188;-84
2021/07/27 14:20:55;;;;;;;2.20;2.10;;;;;;;;;;4995100;28;20251;-85
2021/07/27 14:23:22;;;;;;;2.83;2.63;;;;;;;;;;4986366;28;20184;-84
2021/07/27 14:25:51;;;;;;;2.80;2.60;;;;;;;;;;4975571;28;20188;-84
2021/07/27 14:28:18;;;;;;;2.30;2.10;;;;;;;;;;4975658;28;20185;-84
2021/07/27 14:30:46;;;;;;;2.35;2.20;;;;;;;;;;4984053;28;20188;-85
2021/07/27 14:33:13;;;;;;;2.42;2.30;;;;;;;;;;4975512;28;20219;-85
2021/07/27 14:35:40;;;;;;;2.30;2.20;;;;;;;;;;4975888;28;20183;-84
2021/07/27 14:38:08;;;;;;;2.40;2.20;;;;;;;;;;4975791;28;20199;-85
2021/07/27 14:40:35;;;;;;;2.20;2.10;;;;;;;;;;4991521;28;20212;-84
2021/07/27 14:43:04;;;;;;;2.53;2.33;;;;;;;;;;4994548;28;20717;-85
2021/07/27 14:45:32;;;;;;;2.92;2.72;;;;;;;;;;4980684;28;20200;-86
2021/07/27 14:48:00;;;;;;;2.58;2.38;;;;;;;;;;4975773;28;20215;-85
2021/07/27 14:50:29;;;;;;;2.58;2.38;;;;;;;;;;4983351;28;20734;-85
2021/07/27 14:52:58;;;;;;;2.47;2.28;;;;;;;;;;4975904;28;20694;-85
2021/07/27 14:55:25;;;;;;;2.97;2.70;;;;;;;;;;4976297;28;20208;-85
2021/07/27 14:57:53;;;;;;;2.75;2.55;;;;;;;;;;4975856;28;20680;-86
2021/07/27 15:00:22;;;;;;;2.80;2.60;;;;;;;;;;4975140;28;20201;-85
2021/07/27 15:02:49;;;;;;;2.85;2.65;;;;;;;;;;4974815;28;20228;-85
2021/07/27 15:05:17;;;;;;;2.30;2.10;;;;;;;;;;4974567;28;20188;-84
2021/07/27 15:07:45;;;;;;;2.88;2.67;;;;;;;;;;4974897;28;20212;-85
2021/07/27 15:10:14;;;;;;;2.92;2.72;;;;;;;;;;4988109;28;20195;-85
2021/07/27 15:12:42;;;;;;;2.30;2.10;;;;;;;;;;4993970;28;20232;-85
2021/07/27 15:15:11;;;;;;;2.45;2.30;;;;;;;;;;4990259;28;20681;-85
2021/07/27 15:17:41;;;;;;;3.00;2.80;;;;;;;;;;4975539;28;20201;-85
2021/07/27 15:20:10;;;;;;;2.72;2.53;;;;;;;;;;4989092;28;20208;-85
2021/07/27 15:22:38;;;;;;;2.72;2.53;;;;;;;;;;4994788;28;20717;-84